sensor_id;sensor_type;location;lat;lon;timestamp;pressure;altitude;pressure_sealevel;temperature;humidity
60246;BME280;46107;53.356;-1.524;2024-02-21T00:01:29;98933.75;;;11.30;54.01
60246;BME280;46107;53.356;-1.524;2024-02-21T00:03:57;98938.10;;;10.37;55.23
60246;BME280;46107;53.356;-1.524;2024-02-21T00:06:24;98943.03;;;10.13;57.62
60246;BME280;46107;53.356;-1.524;2024-02-21T00:08:52;98947.45;;;10.12;58.84
60246;BME280;46107;53.356;-1.524;2024-02-21T00:11:19;98936.32;;;9.58;60.22
60246;BME280;46107;53.356;-1.524;2024-02-21T00:13:46;98923.94;;;10.40;58.34
60246;BME280;46107;53.356;-1.524;2024-02-21T00:16:14;98908.10;;;10.64;55.56
60246;BME280;46107;53.356;-1.524;2024-02-21T00:18:41;98894.33;;;10.84;55.33
60246;BME280;46107;53.356;-1.524;2024-02-21T00:21:09;98888.74;;;9.89;58.20
60246;BME280;46107;53.356;-1.524;2024-02-21T00:23:36;98897.58;;;10.37;58.59
60246;BME280;46107;53.356;-1.524;2024-02-21T00:26:04;98900.87;;;9.61;59.88
60246;BME280;46107;53.356;-1.524;2024-02-21T00:28:31;98901.82;;;10.55;58.88
60246;BME280;46107;53.356;-1.524;2024-02-21T00:30:58;98895.76;;;10.26;60.70
60246;BME280;46107;53.356;-1.524;2024-02-21T00:33:26;98893.76;;;11.60;55.84
60246;BME280;46107;53.356;-1.524;2024-02-21T00:35:53;98890.19;;;11.53;55.46
60246;BME280;46107;53.356;-1.524;2024-02-21T00:38:22;98894.81;;;11.45;56.06
60246;BME280;46107;53.356;-1.524;2024-02-21T00:40:50;98890.26;;;11.51;55.98
60246;BME280;46107;53.356;-1.524;2024-02-21T00:43:18;98891.98;;;11.27;58.33
60246;BME280;46107;53.356;-1.524;2024-02-21T00:45:45;98893.92;;;10.77;58.21
60246;BME280;46107;53.356;-1.524;2024-02-21T00:48:12;98893.83;;;10.34;59.15
60246;BME280;46107;53.356;-1.524;2024-02-21T00:50:39;98889.01;;;11.01;57.78
60246;BME280;46107;53.356;-1.524;2024-02-21T00:53:07;98887.21;;;11.33;57.28
60246;BME280;46107;53.356;-1.524;2024-02-21T00:55:35;98886.33;;;9.99;60.16
60246;BME280;46107;53.356;-1.524;2024-02-21T00:58:05;98882.87;;;10.55;59.78
60246;BME280;46107;53.356;-1.524;2024-02-21T01:00:33;98877.77;;;10.52;61.18
60246;BME280;46107;53.356;-1.524;2024-02-21T01:03:00;98865.41;;;11.36;58.74
60246;BME280;46107;53.356;-1.524;2024-02-21T01:05:31;98847.94;;;11.14;58.52
60246;BME280;46107;53.356;-1.524;2024-02-21T01:08:00;98833.93;;;11.58;56.65
60246;BME280;46107;53.356;-1.524;2024-02-21T01:10:29;98832.14;;;11.35;57.42
60246;BME280;46107;53.356;-1.524;2024-02-21T01:12:56;98828.39;;;11.05;56.92
60246;BME280;46107;53.356;-1.524;2024-02-21T01:15:24;98825.26;;;11.52;56.77
60246;BME280;46107;53.356;-1.524;2024-02-21T01:17:53;98823.31;;;10.93;58.39
60246;BME280;46107;53.356;-1.524;2024-02-21T01:20:20;98824.76;;;11.49;57.30
60246;BME280;46107;53.356;-1.524;2024-02-21T01:22:48;98815.06;;;11.96;56.30
60246;BME280;46107;53.356;-1.524;2024-02-21T01:25:15;98806.33;;;11.99;56.52
60246;BME280;46107;53.356;-1.524;2024-02-21T01:27:44;98796.58;;;11.97;56.57
60246;BME280;46107;53.356;-1.524;2024-02-21T01:30:14;98796.82;;;12.24;55.63
60246;BME280;46107;53.356;-1.524;2024-02-21T01:32:42;98789.07;;;11.07;58.58
60246;BME280;46107;53.356;-1.524;2024-02-21T01:35:09;98782.76;;;11.75;57.68
60246;BME280;46107;53.356;-1.524;2024-02-21T01:37:37;98784.81;;;10.61;60.82
60246;BME280;46107;53.356;-1.524;2024-02-21T01:40:05;98772.95;;;9.72;66.14
60246;BME280;46107;53.356;-1.524;2024-02-21T01:42:35;98757.33;;;9.03;68.14
60246;BME280;46107;53.356;-1.524;2024-02-21T01:45:05;98744.67;;;10.19;64.96
60246;BME280;46107;53.356;-1.524;2024-02-21T01:47:33;98728.02;;;9.65;66.66
60246;BME280;46107;53.356;-1.524;2024-02-21T01:50:01;98721.65;;;9.49;66.97
60246;BME280;46107;53.356;-1.524;2024-02-21T01:52:30;98715.99;;;9.51;67.72
60246;BME280;46107;53.356;-1.524;2024-02-21T01:55:02;98716.27;;;10.00;66.60
60246;BME280;46107;53.356;-1.524;2024-02-21T01:57:30;98714.78;;;9.73;65.76
60246;BME280;46107;53.356;-1.524;2024-02-21T01:59:58;98707.09;;;10.49;65.66
60246;BME280;46107;53.356;-1.524;2024-02-21T02:02:25;98703.10;;;9.25;67.10
60246;BME280;46107;53.356;-1.524;2024-02-21T02:04:56;98698.44;;;10.02;66.82
60246;BME280;46107;53.356;-1.524;2024-02-21T02:07:28;98692.53;;;9.79;67.50
60246;BME280;46107;53.356;-1.524;2024-02-21T02:09:55;98697.42;;;9.28;69.02
60246;BME280;46107;53.356;-1.524;2024-02-21T02:12:28;98695.54;;;9.86;66.51
60246;BME280;46107;53.356;-1.524;2024-02-21T02:14:59;98689.08;;;10.47;64.77
60246;BME280;46107;53.356;-1.524;2024-02-21T02:17:27;98681.61;;;9.80;66.19
60246;BME280;46107;53.356;-1.524;2024-02-21T02:19:54;98679.73;;;11.04;62.59
60246;BME280;46107;53.356;-1.524;2024-02-21T02:22:30;98676.02;;;11.45;62.48
60246;BME280;46107;53.356;-1.524;2024-02-21T02:24:58;98666.46;;;11.44;62.09
60246;BME280;46107;53.356;-1.524;2024-02-21T02:27:28;98656.57;;;10.26;66.09
60246;BME280;46107;53.356;-1.524;2024-02-21T02:29:55;98649.69;;;10.07;68.09
60246;BME280;46107;53.356;-1.524;2024-02-21T02:32:22;98643.15;;;10.67;67.23
60246;BME280;46107;53.356;-1.524;2024-02-21T02:34:51;98647.46;;;9.99;68.68
60246;BME280;46107;53.356;-1.524;2024-02-21T02:37:19;98633.30;;;10.38;69.36
60246;BME280;46107;53.356;-1.524;2024-02-21T02:39:46;98625.36;;;10.58;67.87
60246;BME280;46107;53.356;-1.524;2024-02-21T02:42:14;98622.98;;;11.50;65.26
60246;BME280;46107;53.356;-1.524;2024-02-21T02:44:42;98613.95;;;9.85;70.23
60246;BME280;46107;53.356;-1.524;2024-02-21T02:47:11;98612.93;;;9.71;71.44
60246;BME280;46107;53.356;-1.524;2024-02-21T02:49:38;98605.70;;;10.26;69.54
60246;BME280;46107;53.356;-1.524;2024-02-21T02:52:08;98599.51;;;9.50;71.98
60246;BME280;46107;53.356;-1.524;2024-02-21T02:54:39;98588.25;;;8.94;73.49
60246;BME280;46107;53.356;-1.524;2024-02-21T02:57:08;98575.65;;;10.10;69.62
60246;BME280;46107;53.356;-1.524;2024-02-21T02:59:36;98570.13;;;9.38;73.38
60246;BME280;46107;53.356;-1.524;2024-02-21T03:02:04;98559.46;;;9.74;72.19
60246;BME280;46107;53.356;-1.524;2024-02-21T03:04:31;98551.07;;;9.85;72.16
60246;BME280;46107;53.356;-1.524;2024-02-21T03:07:01;98537.30;;;10.58;71.06
60246;BME280;46107;53.356;-1.524;2024-02-21T03:09:31;98532.61;;;9.28;76.60
60246;BME280;46107;53.356;-1.524;2024-02-21T03:11:58;98518.94;;;9.27;76.52
60246;BME280;46107;53.356;-1.524;2024-02-21T03:14:25;98509.81;;;9.57;76.46
60246;BME280;46107;53.356;-1.524;2024-02-21T03:16:54;98504.79;;;9.74;75.63
60246;BME280;46107;53.356;-1.524;2024-02-21T03:19:23;98498.82;;;9.38;76.89
60246;BME280;46107;53.356;-1.524;2024-02-21T03:21:50;98493.28;;;8.55;81.00
60246;BME280;46107;53.356;-1.524;2024-02-21T03:24:18;98480.25;;;9.54;77.41
60246;BME280;46107;53.356;-1.524;2024-02-21T03:26:46;98478.27;;;9.36;78.31
60246;BME280;46107;53.356;-1.524;2024-02-21T03:29:15;98470.28;;;8.68;81.73
60246;BME280;46107;53.356;-1.524;2024-02-21T03:31:44;98459.55;;;8.85;80.43
60246;BME280;46107;53.356;-1.524;2024-02-21T03:34:12;98453.72;;;8.50;82.40
60246;BME280;46107;53.356;-1.524;2024-02-21T03:36:40;98432.53;;;9.39;79.09
60246;BME280;46107;53.356;-1.524;2024-02-21T03:39:10;98424.91;;;9.56;80.16
60246;BME280;46107;53.356;-1.524;2024-02-21T03:41:37;98424.14;;;8.55;81.89
60246;BME280;46107;53.356;-1.524;2024-02-21T03:44:04;98410.44;;;8.67;82.55
60246;BME280;46107;53.356;-1.524;2024-02-21T03:46:33;98399.66;;;9.13;81.80
60246;BME280;46107;53.356;-1.524;2024-02-21T03:49:01;98389.64;;;8.89;81.67
60246;BME280;46107;53.356;-1.524;2024-02-21T03:51:29;98379.86;;;8.71;82.88
60246;BME280;46107;53.356;-1.524;2024-02-21T03:53:58;98373.96;;;8.71;82.29
60246;BME280;46107;53.356;-1.524;2024-02-21T03:56:26;98367.55;;;7.76;84.63
60246;BME280;46107;53.356;-1.524;2024-02-21T03:58:53;98367.71;;;8.52;84.55
60246;BME280;46107;53.356;-1.524;2024-02-21T04:01:21;98364.19;;;8.89;84.11
60246;BME280;46107;53.356;-1.524;2024-02-21T04:03:49;98355.75;;;8.44;85.24
60246;BME280;46107;53.356;-1.524;2024-02-21T04:06:20;98345.74;;;8.61;86.65
60246;BME280;46107;53.356;-1.524;2024-02-21T04:08:48;98339.09;;;8.36;85.02
60246;BME280;46107;53.356;-1.524;2024-02-21T04:11:16;98331.96;;;8.21;85.92
60246;BME280;46107;53.356;-1.524;2024-02-21T04:13:44;98332.36;;;7.42;88.10
60246;BME280;46107;53.356;-1.524;2024-02-21T04:16:12;98330.22;;;7.84;88.24
60246;BME280;46107;53.356;-1.524;2024-02-21T04:18:41;98318.81;;;7.85;89.01
60246;BME280;46107;53.356;-1.524;2024-02-21T04:21:09;98313.91;;;8.47;85.64
60246;BME280;46107;53.356;-1.524;2024-02-21T04:23:36;98312.89;;;8.19;88.00
60246;BME280;46107;53.356;-1.524;2024-02-21T04:26:05;98307.55;;;8.50;86.23
60246;BME280;46107;53.356;-1.524;2024-02-21T04:28:33;98300.42;;;8.48;86.92
60246;BME280;46107;53.356;-1.524;2024-02-21T04:31:00;98299.78;;;8.33;86.00
60246;BME280;46107;53.356;-1.524;2024-02-21T04:33:30;98294.19;;;8.53;85.86
60246;BME280;46107;53.356;-1.524;2024-02-21T04:36:02;98281.82;;;8.35;84.75
60246;BME280;46107;53.356;-1.524;2024-02-21T04:38:30;98280.15;;;8.45;86.24
60246;BME280;46107;53.356;-1.524;2024-02-21T04:40:57;98271.77;;;8.08;85.27
60246;BME280;46107;53.356;-1.524;2024-02-21T04:43:25;98266.46;;;7.49;88.85
60246;BME280;46107;53.356;-1.524;2024-02-21T04:45:52;98253.03;;;9.01;83.01
60246;BME280;46107;53.356;-1.524;2024-02-21T04:48:20;98243.84;;;8.96;82.59
60246;BME280;46107;53.356;-1.524;2024-02-21T04:50:47;98236.54;;;7.97;85.46
60246;BME280;46107;53.356;-1.524;2024-02-21T04:53:15;98240.98;;;8.46;85.91
60246;BME280;46107;53.356;-1.524;2024-02-21T04:55:44;98238.24;;;8.73;85.83
60246;BME280;46107;53.356;-1.524;2024-02-21T04:58:14;98233.46;;;8.04;86.18
60246;BME280;46107;53.356;-1.524;2024-02-21T05:00:41;98221.42;;;9.10;81.09
60246;BME280;46107;53.356;-1.524;2024-02-21T05:03:09;98208.89;;;8.93;80.95
60246;BME280;46107;53.356;-1.524;2024-02-21T05:05:36;98194.42;;;9.06;81.64
60246;BME280;46107;53.356;-1.524;2024-02-21T05:08:07;98186.09;;;9.34;80.75
60246;BME280;46107;53.356;-1.524;2024-02-21T05:10:35;98182.25;;;8.78;81.89
60246;BME280;46107;53.356;-1.524;2024-02-21T05:13:03;98170.77;;;8.62;82.74
60246;BME280;46107;53.356;-1.524;2024-02-21T05:15:31;98153.60;;;8.28;85.98
60246;BME280;46107;53.356;-1.524;2024-02-21T05:18:01;98156.37;;;8.55;85.42
60246;BME280;46107;53.356;-1.524;2024-02-21T05:20:29;98146.88;;;7.93;87.99
60246;BME280;46107;53.356;-1.524;2024-02-21T05:22:56;98131.28;;;8.01;87.73
60246;BME280;46107;53.356;-1.524;2024-02-21T05:25:24;98126.79;;;7.41;89.39
60246;BME280;46107;53.356;-1.524;2024-02-21T05:27:51;98117.41;;;8.25;85.59
60246;BME280;46107;53.356;-1.524;2024-02-21T05:30:19;98111.58;;;8.44;85.51
60246;BME280;46107;53.356;-1.524;2024-02-21T05:32:46;98109.74;;;8.43;87.18
60246;BME280;46107;53.356;-1.524;2024-02-21T05:35:14;98098.36;;;7.67;89.33
60246;BME280;46107;53.356;-1.524;2024-02-21T05:37:42;98090.46;;;8.32;86.73
60246;BME280;46107;53.356;-1.524;2024-02-21T05:40:10;98076.69;;;8.43;85.53
60246;BME280;46107;53.356;-1.524;2024-02-21T05:42:39;98067.40;;;8.22;87.61
60246;BME280;46107;53.356;-1.524;2024-02-21T05:45:07;98054.11;;;7.52;88.40
60246;BME280;46107;53.356;-1.524;2024-02-21T05:47:35;98048.52;;;8.37;86.33
60246;BME280;46107;53.356;-1.524;2024-02-21T05:50:08;98040.72;;;7.50;89.88
60246;BME280;46107;53.356;-1.524;2024-02-21T05:52:39;98038.54;;;8.21;87.71
60246;BME280;46107;53.356;-1.524;2024-02-21T05:55:07;98026.48;;;8.23;87.29
60246;BME280;46107;53.356;-1.524;2024-02-21T05:57:37;98023.99;;;7.53;90.15
60246;BME280;46107;53.356;-1.524;2024-02-21T06:00:09;98022.17;;;7.42;91.03
60246;BME280;46107;53.356;-1.524;2024-02-21T06:02:36;98011.73;;;7.81;89.77
60246;BME280;46107;53.356;-1.524;2024-02-21T06:05:04;98007.04;;;7.36;90.65
60246;BME280;46107;53.356;-1.524;2024-02-21T06:07:33;97993.66;;;7.57;90.66
60246;BME280;46107;53.356;-1.524;2024-02-21T06:10:01;97994.77;;;7.66;92.48
60246;BME280;46107;53.356;-1.524;2024-02-21T06:12:31;97989.34;;;7.66;89.99
60246;BME280;46107;53.356;-1.524;2024-02-21T06:15:00;97974.93;;;7.76;88.77
60246;BME280;46107;53.356;-1.524;2024-02-21T06:17:28;97968.07;;;8.25;86.82
60246;BME280;46107;53.356;-1.524;2024-02-21T06:19:55;97967.60;;;7.45;86.89
60246;BME280;46107;53.356;-1.524;2024-02-21T06:22:24;97961.07;;;7.35;89.95
60246;BME280;46107;53.356;-1.524;2024-02-21T06:24:52;97963.59;;;7.33;90.15
60246;BME280;46107;53.356;-1.524;2024-02-21T06:27:20;97962.38;;;7.01;90.91
60246;BME280;46107;53.356;-1.524;2024-02-21T06:29:49;97961.69;;;7.09;89.85
60246;BME280;46107;53.356;-1.524;2024-02-21T06:32:16;97949.77;;;6.95;89.22
60246;BME280;46107;53.356;-1.524;2024-02-21T06:34:46;97936.26;;;6.12;93.21
60246;BME280;46107;53.356;-1.524;2024-02-21T06:37:14;97937.64;;;6.92;92.40
60246;BME280;46107;53.356;-1.524;2024-02-21T06:39:42;97933.41;;;6.15;94.42
60246;BME280;46107;53.356;-1.524;2024-02-21T06:42:09;97931.11;;;6.67;92.72
60246;BME280;46107;53.356;-1.524;2024-02-21T06:44:37;97924.11;;;6.45;92.70
60246;BME280;46107;53.356;-1.524;2024-02-21T06:47:05;97908.94;;;6.76;91.90
60246;BME280;46107;53.356;-1.524;2024-02-21T06:49:32;97899.29;;;7.70;86.95
60246;BME280;46107;53.356;-1.524;2024-02-21T06:52:00;97893.61;;;6.94;88.32
60246;BME280;46107;53.356;-1.524;2024-02-21T06:54:27;97892.46;;;7.10;88.22
60246;BME280;46107;53.356;-1.524;2024-02-21T06:56:58;97884.30;;;6.96;88.43
60246;BME280;46107;53.356;-1.524;2024-02-21T06:59:27;97877.10;;;6.63;88.50
60246;BME280;46107;53.356;-1.524;2024-02-21T07:01:55;97869.80;;;6.58;88.68
60246;BME280;46107;53.356;-1.524;2024-02-21T07:04:24;97856.26;;;6.23;90.09
60246;BME280;46107;53.356;-1.524;2024-02-21T07:06:51;97844.52;;;6.33;90.23
60246;BME280;46107;53.356;-1.524;2024-02-21T07:09:20;97839.92;;;6.38;89.72
60246;BME280;46107;53.356;-1.524;2024-02-21T07:11:47;97837.93;;;6.51;88.19
60246;BME280;46107;53.356;-1.524;2024-02-21T07:14:15;97824.97;;;6.28;89.15
60246;BME280;46107;53.356;-1.524;2024-02-21T07:16:43;97819.60;;;6.08;89.89
60246;BME280;46107;53.356;-1.524;2024-02-21T07:19:11;97815.24;;;6.42;89.59
60246;BME280;46107;53.356;-1.524;2024-02-21T07:21:39;97804.50;;;5.79;91.44
60246;BME280;46107;53.356;-1.524;2024-02-21T07:24:07;97800.95;;;6.90;89.09
60246;BME280;46107;53.356;-1.524;2024-02-21T07:26:37;97793.23;;;6.02;91.81
60246;BME280;46107;53.356;-1.524;2024-02-21T07:29:08;97788.71;;;6.57;91.52
60246;BME280;46107;53.356;-1.524;2024-02-21T07:31:41;97778.12;;;6.50;90.53
60246;BME280;46107;53.356;-1.524;2024-02-21T07:34:10;97758.70;;;5.82;91.58
60246;BME280;46107;53.356;-1.524;2024-02-21T07:36:37;97755.08;;;6.30;92.89
60246;BME280;46107;53.356;-1.524;2024-02-21T07:39:05;97761.30;;;6.05;92.84
60246;BME280;46107;53.356;-1.524;2024-02-21T07:41:32;97745.42;;;5.93;93.66
60246;BME280;46107;53.356;-1.524;2024-02-21T07:43:59;97735.28;;;5.62;94.65
60246;BME280;46107;53.356;-1.524;2024-02-21T07:46:27;97738.93;;;5.77;93.30
60246;BME280;46107;53.356;-1.524;2024-02-21T07:48:58;97727.37;;;6.39;90.40
60246;BME280;46107;53.356;-1.524;2024-02-21T07:51:28;97722.81;;;6.30;91.50
60246;BME280;46107;53.356;-1.524;2024-02-21T07:53:56;97713.82;;;6.21;92.56
60246;BME280;46107;53.356;-1.524;2024-02-21T07:56:28;97713.96;;;5.60;95.72
60246;BME280;46107;53.356;-1.524;2024-02-21T07:58:56;97712.01;;;5.73;93.93
60246;BME280;46107;53.356;-1.524;2024-02-21T08:01:24;97697.14;;;7.15;88.92
60246;BME280;46107;53.356;-1.524;2024-02-21T08:03:52;97681.29;;;7.58;87.12
60246;BME280;46107;53.356;-1.524;2024-02-21T08:06:20;97672.29;;;6.82;89.40
60246;BME280;46107;53.356;-1.524;2024-02-21T08:08:47;97666.21;;;6.56;89.89
60246;BME280;46107;53.356;-1.524;2024-02-21T08:11:15;97660.03;;;6.65;90.31
60246;BME280;46107;53.356;-1.524;2024-02-21T08:13:44;97650.44;;;6.65;91.19
60246;BME280;46107;53.356;-1.524;2024-02-21T08:16:11;97655.64;;;6.37;93.75
60246;BME280;46107;53.356;-1.524;2024-02-21T08:18:39;97635.51;;;6.32;93.15
60246;BME280;46107;53.356;-1.524;2024-02-21T08:21:06;97627.91;;;6.40;93.19
60246;BME280;46107;53.356;-1.524;2024-02-21T08:23:33;97624.71;;;6.64;91.37
60246;BME280;46107;53.356;-1.524;2024-02-21T08:26:11;97610.78;;;6.72;91.94
60246;BME280;46107;53.356;-1.524;2024-02-21T08:28:39;97613.06;;;6.76;92.18
60246;BME280;46107;53.356;-1.524;2024-02-21T08:31:09;97599.34;;;7.40;91.09
60246;BME280;46107;53.356;-1.524;2024-02-21T08:33:38;97594.74;;;7.13;91.18
60246;BME280;46107;53.356;-1.524;2024-02-21T08:36:06;97574.39;;;6.75;92.72
60246;BME280;46107;53.356;-1.524;2024-02-21T08:38:34;97569.40;;;6.98;91.98
60246;BME280;46107;53.356;-1.524;2024-02-21T08:41:01;97562.76;;;6.03;94.63
60246;BME280;46107;53.356;-1.524;2024-02-21T08:43:30;97549.05;;;7.15;91.39
60246;BME280;46107;53.356;-1.524;2024-02-21T08:45:57;97542.61;;;6.60;92.35
60246;BME280;46107;53.356;-1.524;2024-02-21T08:48:27;97548.29;;;7.12;90.49
60246;BME280;46107;53.356;-1.524;2024-02-21T08:50:55;97543.55;;;6.57;93.82
60246;BME280;46107;53.356;-1.524;2024-02-21T08:53:24;97534.56;;;6.75;93.88
60246;BME280;46107;53.356;-1.524;2024-02-21T08:55:52;97520.68;;;6.99;93.72
60246;BME280;46107;53.356;-1.524;2024-02-21T08:58:21;97513.57;;;6.93;95.55
60246;BME280;46107;53.356;-1.524;2024-02-21T09:00:48;97504.03;;;6.51;95.79
60246;BME280;46107;53.356;-1.524;2024-02-21T09:03:18;97489.22;;;7.37;93.32
60246;BME280;46107;53.356;-1.524;2024-02-21T09:05:46;97476.91;;;6.46;96.78
60246;BME280;46107;53.356;-1.524;2024-02-21T09:08:14;97471.40;;;6.46;97.33
60246;BME280;46107;53.356;-1.524;2024-02-21T09:10:46;97464.40;;;6.17;97.02
60246;BME280;46107;53.356;-1.524;2024-02-21T09:13:15;97451.35;;;6.27;100.00
60246;BME280;46107;53.356;-1.524;2024-02-21T09:15:44;97442.85;;;6.94;96.49
60246;BME280;46107;53.356;-1.524;2024-02-21T09:18:12;97428.10;;;6.44;96.01
60246;BME280;46107;53.356;-1.524;2024-02-21T09:20:43;97426.62;;;7.16;95.05
60246;BME280;46107;53.356;-1.524;2024-02-21T09:23:14;97415.65;;;7.16;94.83
60246;BME280;46107;53.356;-1.524;2024-02-21T09:25:43;97416.94;;;6.75;96.27
60246;BME280;46107;53.356;-1.524;2024-02-21T09:28:13;97403.79;;;6.89;95.08
60246;BME280;46107;53.356;-1.524;2024-02-21T09:30:41;97395.08;;;6.76;96.72
60246;BME280;46107;53.356;-1.524;2024-02-21T09:33:09;97385.04;;;6.62;96.99
60246;BME280;46107;53.356;-1.524;2024-02-21T09:35:36;97382.13;;;5.72;100.00
60246;BME280;46107;53.356;-1.524;2024-02-21T09:38:09;97361.52;;;6.90;98.90
60246;BME280;46107;53.356;-1.524;2024-02-21T09:40:38;97351.67;;;6.70;98.70
60246;BME280;46107;53.356;-1.524;2024-02-21T09:43:06;97336.42;;;7.05;98.88
60246;BME280;46107;53.356;-1.524;2024-02-21T09:45:38;97327.51;;;6.70;98.46
60246;BME280;46107;53.356;-1.524;2024-02-21T09:48:19;97323.44;;;6.44;100.00
60246;BME280;46107;53.356;-1.524;2024-02-21T09:50:51;97314.51;;;7.11;96.82
60246;BME280;46107;53.356;-1.524;2024-02-21T09:53:22;97306.44;;;6.60;99.30
60246;BME280;46107;53.356;-1.524;2024-02-21T09:55:51;97295.87;;;6.76;98.10
60246;BME280;46107;53.356;-1.524;2024-02-21T09:58:21;97285.22;;;6.88;99.00
60246;BME280;46107;53.356;-1.524;2024-02-21T10:00:50;97260.95;;;6.68;99.17
60246;BME280;46107;53.356;-1.524;2024-02-21T10:03:19;97263.27;;;6.67;100.00
60246;BME280;46107;53.356;-1.524;2024-02-21T10:05:48;97266.45;;;6.85;99.18
60246;BME280;46107;53.356;-1.524;2024-02-21T10:08:17;97258.28;;;7.11;97.33
60246;BME280;46107;53.356;-1.524;2024-02-21T10:10:46;97254.15;;;7.33;97.52
60246;BME280;46107;53.356;-1.524;2024-02-21T10:13:26;97247.97;;;6.88;98.16
60246;BME280;46107;53.356;-1.524;2024-02-21T10:16:03;97239.03;;;6.32;99.51
60246;BME280;46107;53.356;-1.524;2024-02-21T10:18:30;97225.52;;;7.15;98.02
60246;BME280;46107;53.356;-1.524;2024-02-21T10:21:02;97213.65;;;6.72;99.66
60246;BME280;46107;53.356;-1.524;2024-02-21T10:23:40;97202.69;;;7.30;98.91
60246;BME280;46107;53.356;-1.524;2024-02-21T10:26:09;97200.94;;;7.29;98.42
60246;BME280;46107;53.356;-1.524;2024-02-21T10:28:38;97181.07;;;7.05;99.84
60246;BME280;46107;53.356;-1.524;2024-02-21T10:31:06;97169.83;;;7.18;99.28
60246;BME280;46107;53.356;-1.524;2024-02-21T10:33:33;97153.71;;;7.47;96.30
60246;BME280;46107;53.356;-1.524;2024-02-21T10:36:09;97149.99;;;7.50;96.10
60246;BME280;46107;53.356;-1.524;2024-02-21T10:38:37;97157.17;;;7.84;97.19
60246;BME280;46107;53.356;-1.524;2024-02-21T10:41:05;97143.80;;;7.58;96.12
60246;BME280;46107;53.356;-1.524;2024-02-21T10:43:38;97135.63;;;7.59;97.80
60246;BME280;46107;53.356;-1.524;2024-02-21T10:46:06;97138.97;;;7.54;97.98
60246;BME280;46107;53.356;-1.524;2024-02-21T10:48:41;97131.22;;;7.79;95.68
60246;BME280;46107;53.356;-1.524;2024-02-21T10:51:16;97134.23;;;7.66;96.78
60246;BME280;46107;53.356;-1.524;2024-02-21T10:53:47;97114.08;;;7.55;96.42
60246;BME280;46107;53.356;-1.524;2024-02-21T10:56:22;97101.01;;;7.69;95.92
60246;BME280;46107;53.356;-1.524;2024-02-21T10:58:58;97104.54;;;7.91;96.64
60246;BME280;46107;53.356;-1.524;2024-02-21T11:01:25;97087.95;;;7.54;99.54
60246;BME280;46107;53.356;-1.524;2024-02-21T11:03:59;97096.26;;;7.73;98.83
60246;BME280;46107;53.356;-1.524;2024-02-21T11:06:33;97083.79;;;7.38;100.00
60246;BME280;46107;53.356;-1.524;2024-02-21T11:09:03;97075.13;;;6.70;100.00
60246;BME280;46107;53.356;-1.524;2024-02-21T11:11:34;97065.51;;;7.18;100.00
60246;BME280;46107;53.356;-1.524;2024-02-21T11:14:06;97055.77;;;7.40;100.00
60246;BME280;46107;53.356;-1.524;2024-02-21T11:16:37;97041.42;;;7.14;100.00
60246;BME280;46107;53.356;-1.524;2024-02-21T11:19:07;97037.34;;;7.22;100.00
60246;BME280;46107;53.356;-1.524;2024-02-21T11:21:36;97038.13;;;6.80;100.00
60246;BME280;46107;53.356;-1.524;2024-02-21T11:24:05;97036.77;;;7.06;100.00
60246;BME280;46107;53.356;-1.524;2024-02-21T11:26:32;97028.76;;;7.47;100.00
60246;BME280;46107;53.356;-1.524;2024-02-21T11:29:03;97022.84;;;8.04;98.40
60246;BME280;46107;53.356;-1.524;2024-02-21T11:31:39;97001.36;;;7.22;100.00
60246;BME280;46107;53.356;-1.524;2024-02-21T11:34:09;97003.25;;;7.85;99.51
60246;BME280;46107;53.356;-1.524;2024-02-21T11:36:46;96998.53;;;8.03;97.29
60246;BME280;46107;53.356;-1.524;2024-02-21T11:39:18;96999.21;;;7.85;98.71
60246;BME280;46107;53.356;-1.524;2024-02-21T11:41:59;96989.47;;;8.12;98.78
60246;BME280;46107;53.356;-1.524;2024-02-21T11:44:27;96975.55;;;7.70;99.29
60246;BME280;46107;53.356;-1.524;2024-02-21T11:46:54;96977.23;;;7.24;100.00
60246;BME280;46107;53.356;-1.524;2024-02-21T11:49:21;96968.86;;;7.46;100.00
60246;BME280;46107;53.356;-1.524;2024-02-21T11:52:02;96948.69;;;7.50;100.00
60246;BME280;46107;53.356;-1.524;2024-02-21T11:54:30;96942.03;;;7.09;100.00
60246;BME280;46107;53.356;-1.524;2024-02-21T11:57:00;96940.24;;;7.71;99.54
60246;BME280;46107;53.356;-1.524;2024-02-21T11:59:31;96942.19;;;7.85;98.68
60246;BME280;46107;53.356;-1.524;2024-02-21T12:02:00;96922.52;;;7.92;99.11
60246;BME280;46107;53.356;-1.524;2024-02-21T12:04:28;96917.05;;;7.68;99.94
60246;BME280;46107;53.356;-1.524;2024-02-21T12:07:05;96893.66;;;8.44;98.54
60246;BME280;46107;53.356;-1.524;2024-02-21T12:09:34;96891.88;;;8.19;96.87
60246;BME280;46107;53.356;-1.524;2024-02-21T12:12:03;96874.92;;;7.61;99.03
60246;BME280;46107;53.356;-1.524;2024-02-21T12:14:33;96868.93;;;7.67;99.20
60246;BME280;46107;53.356;-1.524;2024-02-21T12:17:03;96840.03;;;8.26;98.79
60246;BME280;46107;53.356;-1.524;2024-02-21T12:19:30;96838.65;;;8.18;94.98
60246;BME280;46107;53.356;-1.524;2024-02-21T12:22:00;96827.73;;;7.72;98.59
60246;BME280;46107;53.356;-1.524;2024-02-21T12:24:29;96810.69;;;7.65;100.00
60246;BME280;46107;53.356;-1.524;2024-02-21T12:26:59;96818.02;;;8.25;97.88
60246;BME280;46107;53.356;-1.524;2024-02-21T12:29:27;96799.00;;;8.44;97.70
60246;BME280;46107;53.356;-1.524;2024-02-21T12:31:55;96794.15;;;8.06;98.65
60246;BME280;46107;53.356;-1.524;2024-02-21T12:34:24;96783.59;;;7.84;99.86
60246;BME280;46107;53.356;-1.524;2024-02-21T12:36:51;96772.80;;;7.57;100.00
60246;BME280;46107;53.356;-1.524;2024-02-21T12:39:20;96763.87;;;8.43;96.87
60246;BME280;46107;53.356;-1.524;2024-02-21T12:41:50;96756.38;;;8.18;96.94
60246;BME280;46107;53.356;-1.524;2024-02-21T12:44:18;96756.12;;;8.64;96.21
60246;BME280;46107;53.356;-1.524;2024-02-21T12:46:45;96750.33;;;9.00;95.16
60246;BME280;46107;53.356;-1.524;2024-02-21T12:49:13;96740.62;;;8.93;95.33
60246;BME280;46107;53.356;-1.524;2024-02-21T12:51:43;96739.21;;;8.98;93.86
60246;BME280;46107;53.356;-1.524;2024-02-21T12:54:10;96736.62;;;8.89;93.96
60246;BME280;46107;53.356;-1.524;2024-02-21T12:56:38;96740.81;;;8.75;94.54
60246;BME280;46107;53.356;-1.524;2024-02-21T12:59:06;96740.46;;;8.25;96.41
60246;BME280;46107;53.356;-1.524;2024-02-21T13:01:35;96726.74;;;8.82;95.99
60246;BME280;46107;53.356;-1.524;2024-02-21T13:04:03;96726.93;;;8.78;96.09
60246;BME280;46107;53.356;-1.524;2024-02-21T13:06:31;96731.43;;;8.79;97.62